sensor_id;sensor_type;location;lat;lon;timestamp;pressure;altitude;pressure_sealevel;temperature
49557;BMP280;35462;45.048;7.666;2023-06-14T00:05:57;98333.63;;;22.90
49557;BMP280;35462;45.048;7.666;2023-06-14T00:21:16;98321.13;;;22.87
49557;BMP280;35462;45.048;7.666;2023-06-14T00:36:43;98316.22;;;22.80
49557;BMP280;35462;45.048;7.666;2023-06-14T00:52:03;98307.88;;;22.78
49557;BMP280;35462;45.048;7.666;2023-06-14T01:07:34;98301.72;;;22.77
49557;BMP280;35462;45.048;7.666;2023-06-14T01:23:00;98288.75;;;22.76
49557;BMP280;35462;45.048;7.666;2023-06-14T01:38:31;98284.59;;;22.69
49557;BMP280;35462;45.048;7.666;2023-06-14T01:53:54;98271.81;;;22.70
49557;BMP280;35462;45.048;7.666;2023-06-14T02:09:18;98272.09;;;22.66
49557;BMP280;35462;45.048;7.666;2023-06-14T02:24:44;98274.28;;;22.68
49557;BMP280;35462;45.048;7.666;2023-06-14T02:40:06;98269.66;;;22.63
49557;BMP280;35462;45.048;7.666;2023-06-14T02:55:33;98263.78;;;22.59
49557;BMP280;35462;45.048;7.666;2023-06-14T03:11:07;98258.13;;;22.57
49557;BMP280;35462;45.048;7.666;2023-06-14T03:42:40;98267.25;;;22.54
49557;BMP280;35462;45.048;7.666;2023-06-14T03:58:01;98270.91;;;22.51
49557;BMP280;35462;45.048;7.666;2023-06-14T04:13:21;98286.63;;;22.47
49557;BMP280;35462;45.048;7.666;2023-06-14T04:28:41;98305.81;;;22.33
49557;BMP280;35462;45.048;7.666;2023-06-14T04:44:03;98301.22;;;22.17
49557;BMP280;35462;45.048;7.666;2023-06-14T04:59:27;98307.84;;;22.05
49557;BMP280;35462;45.048;7.666;2023-06-14T05:14:47;98334.56;;;22.03
49557;BMP280;35462;45.048;7.666;2023-06-14T05:30:10;98336.03;;;21.93
49557;BMP280;35462;45.048;7.666;2023-06-14T05:45:30;98369.38;;;21.95
49557;BMP280;35462;45.048;7.666;2023-06-14T06:00:49;98378.19;;;21.90
49557;BMP280;35462;45.048;7.666;2023-06-14T06:16:09;98392.91;;;21.89
49557;BMP280;35462;45.048;7.666;2023-06-14T06:31:29;98408.38;;;21.83
49557;BMP280;35462;45.048;7.666;2023-06-14T06:46:48;98426.75;;;21.80
49557;BMP280;35462;45.048;7.666;2023-06-14T07:02:07;98438.72;;;21.73
49557;BMP280;35462;45.048;7.666;2023-06-14T07:17:27;98453.66;;;21.69
49557;BMP280;35462;45.048;7.666;2023-06-14T07:32:46;98463.50;;;21.72
49557;BMP280;35462;45.048;7.666;2023-06-14T07:48:06;98474.53;;;21.79
49557;BMP280;35462;45.048;7.666;2023-06-14T08:03:25;98475.81;;;21.94
49557;BMP280;35462;45.048;7.666;2023-06-14T08:18:45;98474.81;;;22.03
49557;BMP280;35462;45.048;7.666;2023-06-14T08:34:05;98479.03;;;22.20
49557;BMP280;35462;45.048;7.666;2023-06-14T08:49:25;98485.41;;;22.39
49557;BMP280;35462;45.048;7.666;2023-06-14T09:04:45;98496.19;;;22.45
49557;BMP280;35462;45.048;7.666;2023-06-14T09:20:06;98491.53;;;22.56
49557;BMP280;35462;45.048;7.666;2023-06-14T09:35:26;98500.31;;;22.89
49557;BMP280;35462;45.048;7.666;2023-06-14T09:50:47;98493.28;;;23.43
49557;BMP280;35462;45.048;7.666;2023-06-14T10:06:09;98498.84;;;22.94
49557;BMP280;35462;45.048;7.666;2023-06-14T10:21:37;98494.19;;;23.00
49557;BMP280;35462;45.048;7.666;2023-06-14T10:37:06;98480.19;;;23.52
49557;BMP280;35462;45.048;7.666;2023-06-14T10:52:29;98479.97;;;23.50
49557;BMP280;35462;45.048;7.666;2023-06-14T11:23:15;98481.06;;;23.82
49557;BMP280;35462;45.048;7.666;2023-06-14T11:38:39;98477.28;;;23.96
49557;BMP280;35462;45.048;7.666;2023-06-14T11:54:03;98458.84;;;24.24
49557;BMP280;35462;45.048;7.666;2023-06-14T12:09:33;98454.91;;;24.54
49557;BMP280;35462;45.048;7.666;2023-06-14T12:24:56;98437.53;;;24.68
49557;BMP280;35462;45.048;7.666;2023-06-14T12:40:26;98421.19;;;24.73
49557;BMP280;35462;45.048;7.666;2023-06-14T12:55:47;98406.47;;;24.69
49557;BMP280;35462;45.048;7.666;2023-06-14T13:11:20;98414.25;;;24.78
49557;BMP280;35462;45.048;7.666;2023-06-14T13:26:41;98396.25;;;24.56
49557;BMP280;35462;45.048;7.666;2023-06-14T13:42:01;98391.69;;;24.70
49557;BMP280;35462;45.048;7.666;2023-06-14T13:57:20;98370.47;;;24.92
49557;BMP280;35462;45.048;7.666;2023-06-14T14:12:40;98364.31;;;25.10
49557;BMP280;35462;45.048;7.666;2023-06-14T14:27:59;98351.72;;;25.31
49557;BMP280;35462;45.048;7.666;2023-06-14T14:43:18;98341.69;;;25.39
49557;BMP280;35462;45.048;7.666;2023-06-14T14:58:38;98344.44;;;25.52
49557;BMP280;35462;45.048;7.666;2023-06-14T15:13:57;98350.13;;;25.54
49557;BMP280;35462;45.048;7.666;2023-06-14T15:29:36;98334.63;;;25.49
49557;BMP280;35462;45.048;7.666;2023-06-14T15:44:56;98337.75;;;25.40
49557;BMP280;35462;45.048;7.666;2023-06-14T16:00:16;98335.16;;;25.34
49557;BMP280;35462;45.048;7.666;2023-06-14T16:15:35;98307.56;;;25.30
49557;BMP280;35462;45.048;7.666;2023-06-14T16:30:55;98310.47;;;25.32
49557;BMP280;35462;45.048;7.666;2023-06-14T16:46:14;98311.22;;;25.33
49557;BMP280;35462;45.048;7.666;2023-06-14T17:01:49;98320.00;;;25.39
49557;BMP280;35462;45.048;7.666;2023-06-14T17:17:08;98336.44;;;25.46
49557;BMP280;35462;45.048;7.666;2023-06-14T17:32:28;98361.63;;;25.41
49557;BMP280;35462;45.048;7.666;2023-06-14T17:47:47;98378.13;;;25.25
49557;BMP280;35462;45.048;7.666;2023-06-14T18:03:06;98393.19;;;25.07
49557;BMP280;35462;45.048;7.666;2023-06-14T18:18:26;98404.00;;;24.89
49557;BMP280;35462;45.048;7.666;2023-06-14T18:33:45;98408.25;;;24.85
49557;BMP280;35462;45.048;7.666;2023-06-14T18:49:05;98428.75;;;24.80
49557;BMP280;35462;45.048;7.666;2023-06-14T19:04:24;98442.09;;;24.78
49557;BMP280;35462;45.048;7.666;2023-06-14T19:19:44;98455.38;;;24.76
49557;BMP280;35462;45.048;7.666;2023-06-14T19:35:06;98468.00;;;24.68
49557;BMP280;35462;45.048;7.666;2023-06-14T19:50:26;98480.91;;;24.62
49557;BMP280;35462;45.048;7.666;2023-06-14T20:05:46;98495.97;;;24.58
49557;BMP280;35462;45.048;7.666;2023-06-14T20:21:05;98512.72;;;24.56
49557;BMP280;35462;45.048;7.666;2023-06-14T20:36:25;98544.53;;;24.50
49557;BMP280;35462;45.048;7.666;2023-06-14T20:51:44;98545.84;;;24.38
49557;BMP280;35462;45.048;7.666;2023-06-14T21:07:05;98541.50;;;24.25
49557;BMP280;35462;45.048;7.666;2023-06-14T21:22:25;98537.63;;;24.15
49557;BMP280;35462;45.048;7.666;2023-06-14T21:37:45;98546.81;;;24.06
49557;BMP280;35462;45.048;7.666;2023-06-14T21:53:04;98551.78;;;23.97
49557;BMP280;35462;45.048;7.666;2023-06-14T22:08:24;98547.69;;;23.85
49557;BMP280;35462;45.048;7.666;2023-06-14T22:23:43;98562.72;;;23.70
49557;BMP280;35462;45.048;7.666;2023-06-14T22:39:04;98588.09;;;23.61
49557;BMP280;35462;45.048;7.666;2023-06-14T22:54:23;98604.38;;;23.50
49557;BMP280;35462;45.048;7.666;2023-06-14T23:09:45;98615.44;;;23.47
49557;BMP280;35462;45.048;7.666;2023-06-14T23:25:04;98629.22;;;23.38
49557;BMP280;35462;45.048;7.666;2023-06-14T23:40:26;98628.25;;;23.30
49557;BMP280;35462;45.048;7.666;2023-06-14T23:55:48;98643.97;;;23.20
